メインページ
METAR-TAF:

METAR-TAF

空港 :

テルアビブ / ベン・グリオン, イスラエル

ベン・グリオン国際空港

緯度: 32-00N, 経度: 034-54E, 海抜: 40m

現時点の気象観測

当レポートは27分前の01:20(UTC)に作成
の風 11kt
気温 13°C
湿度 88%
気圧 1015 hPa
視程10km以上
高度2700ftの雲は散在している

METAR: LLBG 180120Z 18011KT 9999 SCT027 13/11 Q1015 NOSIG RMK BKN056 RERA

時間: 03:47 (01:47 UTC)

予報

当レポートは2時間45分前の23:02(UTC)に作成
予報は18日の 00時(UTC)から 18日の 24時(UTC)まで有効
南/南東の風 10kt
視程10km以上
高度2000ftの雲は散在している
18日の 06時(UTC)から 18日の 08時(UTC)まで徐々に
西/南西の風 15kt
高度5000ftの雲はほとんどない
18日の 15時(UTC)から 18日の 17時(UTC)まで徐々に
南/南西の風 18kt、最大28ktの突風を伴う
視程: 6000m
高度5000ftの雲は散在している
18日の 2000時(UTC)から
西の風 24kt、最大34ktの突風を伴う
視程: 4000m
高度2000ftの雲は散在している, 塔状積雲.
にわか雨

TAF: LLBG 172302Z 1800/1824 16010KT 9999 SCT020 BECMG 1806/1808 25015KT FEW050 BECMG 1815/1817 20018G28KT 6000 SCT050 FM182000 28024G34KT 4000 SHRA SCT020TCU TX19/1812Z TN11/1804Z

4,000以上の空港の気象観測と天気予報(METAR報とTAF報)

利用可能な観測所は地図上に黄色い丸と赤い丸で示す。

丸の上にカーソルを重ねると観測所名を参照できる。

次にクリックすると気象観測と天気予報を参照できる。

マップの切り替え:黒色「×」印の緑ボタンをクリックして拡大、「-」印の緑ボタンをクリックして縮小、緑色の三角印をクリックして隣りの地図に切り替え


METAR-TAF: